sensor_id;sensor_type;location;lat;lon;timestamp;P1;durP1;ratioP1;P2;durP2;ratioP2
20036;SDS011;10179;42.640;23.312;2023-02-18T00:01:07;18.33;;;9.20;;
20036;SDS011;10179;42.640;23.312;2023-02-18T00:03:37;19.23;;;8.75;;
20036;SDS011;10179;42.640;23.312;2023-02-18T00:06:23;20.60;;;8.82;;
20036;SDS011;10179;42.640;23.312;2023-02-18T00:08:51;23.35;;;9.52;;
20036;SDS011;10179;42.640;23.312;2023-02-18T00:11:18;17.45;;;9.10;;
20036;SDS011;10179;42.640;23.312;2023-02-18T00:13:54;18.42;;;8.85;;
20036;SDS011;10179;42.640;23.312;2023-02-18T00:16:21;18.42;;;9.18;;
20036;SDS011;10179;42.640;23.312;2023-02-18T00:18:49;18.88;;;8.38;;
20036;SDS011;10179;42.640;23.312;2023-02-18T00:21:15;16.15;;;9.20;;
20036;SDS011;10179;42.640;23.312;2023-02-18T00:23:41;24.05;;;9.57;;
20036;SDS011;10179;42.640;23.312;2023-02-18T00:26:07;18.58;;;9.32;;
20036;SDS011;10179;42.640;23.312;2023-02-18T00:28:35;22.50;;;10.40;;
20036;SDS011;10179;42.640;23.312;2023-02-18T00:31:05;25.60;;;10.95;;
20036;SDS011;10179;42.640;23.312;2023-02-18T00:33:38;30.77;;;11.88;;
20036;SDS011;10179;42.640;23.312;2023-02-18T00:36:05;24.20;;;11.82;;
20036;SDS011;10179;42.640;23.312;2023-02-18T00:38:33;25.33;;;12.52;;
20036;SDS011;10179;42.640;23.312;2023-02-18T00:40:59;42.13;;;19.98;;
20036;SDS011;10179;42.640;23.312;2023-02-18T00:43:25;30.73;;;14.63;;
20036;SDS011;10179;42.640;23.312;2023-02-18T00:45:51;27.45;;;12.93;;
20036;SDS011;10179;42.640;23.312;2023-02-18T00:48:16;24.48;;;10.43;;
20036;SDS011;10179;42.640;23.312;2023-02-18T00:50:41;26.17;;;11.40;;
20036;SDS011;10179;42.640;23.312;2023-02-18T00:53:07;25.25;;;11.80;;
20036;SDS011;10179;42.640;23.312;2023-02-18T00:55:37;24.73;;;10.85;;
20036;SDS011;10179;42.640;23.312;2023-02-18T00:58:06;20.88;;;10.80;;
20036;SDS011;10179;42.640;23.312;2023-02-18T01:00:31;25.77;;;10.75;;
20036;SDS011;10179;42.640;23.312;2023-02-18T01:02:57;27.27;;;12.10;;
20036;SDS011;10179;42.640;23.312;2023-02-18T01:05:23;20.48;;;9.48;;
20036;SDS011;10179;42.640;23.312;2023-02-18T01:07:48;24.52;;;11.90;;
20036;SDS011;10179;42.640;23.312;2023-02-18T01:10:13;22.35;;;10.43;;
20036;SDS011;10179;42.640;23.312;2023-02-18T01:12:40;26.02;;;10.98;;
20036;SDS011;10179;42.640;23.312;2023-02-18T01:15:05;30.98;;;11.40;;
20036;SDS011;10179;42.640;23.312;2023-02-18T01:17:31;33.10;;;13.70;;
20036;SDS011;10179;42.640;23.312;2023-02-18T01:19:57;26.88;;;13.00;;
20036;SDS011;10179;42.640;23.312;2023-02-18T01:22:23;31.38;;;12.73;;
20036;SDS011;10179;42.640;23.312;2023-02-18T01:24:49;36.83;;;14.80;;
20036;SDS011;10179;42.640;23.312;2023-02-18T01:27:15;33.13;;;13.23;;
20036;SDS011;10179;42.640;23.312;2023-02-18T01:29:41;29.60;;;12.25;;
20036;SDS011;10179;42.640;23.312;2023-02-18T01:32:06;21.70;;;10.93;;
20036;SDS011;10179;42.640;23.312;2023-02-18T01:34:32;24.98;;;11.25;;
20036;SDS011;10179;42.640;23.312;2023-02-18T01:36:58;24.13;;;9.52;;
20036;SDS011;10179;42.640;23.312;2023-02-18T01:39:23;24.33;;;10.77;;
20036;SDS011;10179;42.640;23.312;2023-02-18T01:41:49;20.42;;;8.75;;
20036;SDS011;10179;42.640;23.312;2023-02-18T01:44:16;21.20;;;8.07;;
20036;SDS011;10179;42.640;23.312;2023-02-18T01:46:43;14.50;;;7.65;;
20036;SDS011;10179;42.640;23.312;2023-02-18T01:49:09;18.65;;;8.25;;
20036;SDS011;10179;42.640;23.312;2023-02-18T01:51:42;25.40;;;9.98;;
20036;SDS011;10179;42.640;23.312;2023-02-18T01:57:03;18.85;;;7.78;;
20036;SDS011;10179;42.640;23.312;2023-02-18T01:59:42;25.10;;;8.85;;
20036;SDS011;10179;42.640;23.312;2023-02-18T02:02:13;19.42;;;8.70;;
20036;SDS011;10179;42.640;23.312;2023-02-18T02:04:41;16.58;;;7.43;;
20036;SDS011;10179;42.640;23.312;2023-02-18T02:07:06;20.13;;;8.52;;
20036;SDS011;10179;42.640;23.312;2023-02-18T02:09:32;16.23;;;8.07;;
20036;SDS011;10179;42.640;23.312;2023-02-18T02:17:36;22.52;;;8.68;;
20036;SDS011;10179;42.640;23.312;2023-02-18T02:22:45;19.17;;;7.30;;
20036;SDS011;10179;42.640;23.312;2023-02-18T02:30:47;17.15;;;7.85;;
20036;SDS011;10179;42.640;23.312;2023-02-18T02:33:24;15.77;;;7.03;;
20036;SDS011;10179;42.640;23.312;2023-02-18T02:38:39;16.15;;;7.22;;
20036;SDS011;10179;42.640;23.312;2023-02-18T02:41:33;15.80;;;7.57;;
20036;SDS011;10179;42.640;23.312;2023-02-18T02:44:23;20.02;;;7.47;;
20036;SDS011;10179;42.640;23.312;2023-02-18T02:46:52;14.55;;;6.97;;
20036;SDS011;10179;42.640;23.312;2023-02-18T02:52:07;15.57;;;7.78;;
20036;SDS011;10179;42.640;23.312;2023-02-18T02:54:34;15.00;;;7.15;;
20036;SDS011;10179;42.640;23.312;2023-02-18T02:59:35;15.93;;;7.32;;
20036;SDS011;10179;42.640;23.312;2023-02-18T03:08:01;17.05;;;6.78;;
20036;SDS011;10179;42.640;23.312;2023-02-18T03:13:20;18.27;;;7.20;;
20036;SDS011;10179;42.640;23.312;2023-02-18T03:21:28;15.95;;;7.88;;
20036;SDS011;10179;42.640;23.312;2023-02-18T03:24:01;14.63;;;7.25;;
20036;SDS011;10179;42.640;23.312;2023-02-18T03:26:35;16.02;;;7.13;;
20036;SDS011;10179;42.640;23.312;2023-02-18T03:29:04;15.55;;;7.70;;
20036;SDS011;10179;42.640;23.312;2023-02-18T03:31:33;18.00;;;7.30;;
20036;SDS011;10179;42.640;23.312;2023-02-18T03:34:15;19.33;;;8.07;;
20036;SDS011;10179;42.640;23.312;2023-02-18T03:36:44;16.45;;;7.85;;
20036;SDS011;10179;42.640;23.312;2023-02-18T03:39:13;17.88;;;8.35;;
20036;SDS011;10179;42.640;23.312;2023-02-18T03:41:40;27.83;;;13.95;;
20036;SDS011;10179;42.640;23.312;2023-02-18T03:44:06;28.00;;;14.02;;
20036;SDS011;10179;42.640;23.312;2023-02-18T03:46:33;19.38;;;11.13;;
20036;SDS011;10179;42.640;23.312;2023-02-18T03:49:00;20.58;;;10.68;;
20036;SDS011;10179;42.640;23.312;2023-02-18T03:51:26;21.48;;;9.20;;
20036;SDS011;10179;42.640;23.312;2023-02-18T03:53:52;17.60;;;7.70;;
20036;SDS011;10179;42.640;23.312;2023-02-18T03:56:18;13.10;;;7.18;;
20036;SDS011;10179;42.640;23.312;2023-02-18T03:58:44;15.73;;;7.72;;
20036;SDS011;10179;42.640;23.312;2023-02-18T04:01:10;18.70;;;8.43;;
20036;SDS011;10179;42.640;23.312;2023-02-18T04:03:35;18.10;;;8.52;;
20036;SDS011;10179;42.640;23.312;2023-02-18T04:06:01;21.10;;;8.93;;
20036;SDS011;10179;42.640;23.312;2023-02-18T04:08:26;27.00;;;8.95;;
20036;SDS011;10179;42.640;23.312;2023-02-18T04:10:52;25.67;;;9.15;;
20036;SDS011;10179;42.640;23.312;2023-02-18T04:13:17;17.63;;;8.30;;
20036;SDS011;10179;42.640;23.312;2023-02-18T04:15:43;22.00;;;9.45;;
20036;SDS011;10179;42.640;23.312;2023-02-18T04:18:09;16.67;;;8.75;;
20036;SDS011;10179;42.640;23.312;2023-02-18T04:20:35;16.27;;;8.38;;
20036;SDS011;10179;42.640;23.312;2023-02-18T04:23:01;17.52;;;7.70;;
20036;SDS011;10179;42.640;23.312;2023-02-18T04:25:27;15.48;;;6.68;;
20036;SDS011;10179;42.640;23.312;2023-02-18T04:27:52;15.43;;;6.82;;
20036;SDS011;10179;42.640;23.312;2023-02-18T04:30:17;16.23;;;6.93;;
20036;SDS011;10179;42.640;23.312;2023-02-18T04:32:43;15.43;;;6.45;;
20036;SDS011;10179;42.640;23.312;2023-02-18T04:35:08;14.52;;;7.00;;
20036;SDS011;10179;42.640;23.312;2023-02-18T04:37:34;11.57;;;6.38;;
20036;SDS011;10179;42.640;23.312;2023-02-18T04:39:59;13.23;;;6.22;;
20036;SDS011;10179;42.640;23.312;2023-02-18T04:42:24;18.23;;;6.63;;
20036;SDS011;10179;42.640;23.312;2023-02-18T04:44:50;16.20;;;7.35;;
20036;SDS011;10179;42.640;23.312;2023-02-18T04:47:15;13.20;;;7.10;;
20036;SDS011;10179;42.640;23.312;2023-02-18T04:49:41;14.30;;;6.88;;
20036;SDS011;10179;42.640;23.312;2023-02-18T04:52:06;14.77;;;7.28;;
20036;SDS011;10179;42.640;23.312;2023-02-18T04:54:31;13.38;;;7.13;;
20036;SDS011;10179;42.640;23.312;2023-02-18T04:56:57;21.73;;;7.53;;
20036;SDS011;10179;42.640;23.312;2023-02-18T04:59:22;18.05;;;8.38;;
20036;SDS011;10179;42.640;23.312;2023-02-18T05:01:48;21.15;;;8.45;;
20036;SDS011;10179;42.640;23.312;2023-02-18T05:04:14;26.63;;;9.20;;
20036;SDS011;10179;42.640;23.312;2023-02-18T05:06:41;18.77;;;8.35;;
20036;SDS011;10179;42.640;23.312;2023-02-18T05:09:07;17.42;;;7.53;;
20036;SDS011;10179;42.640;23.312;2023-02-18T05:11:33;24.40;;;8.20;;
20036;SDS011;10179;42.640;23.312;2023-02-18T05:13:58;21.88;;;8.30;;
20036;SDS011;10179;42.640;23.312;2023-02-18T05:16:24;20.45;;;8.00;;
20036;SDS011;10179;42.640;23.312;2023-02-18T05:18:49;23.10;;;7.97;;
20036;SDS011;10179;42.640;23.312;2023-02-18T05:21:15;25.40;;;8.40;;
20036;SDS011;10179;42.640;23.312;2023-02-18T05:23:40;30.10;;;12.90;;
20036;SDS011;10179;42.640;23.312;2023-02-18T05:26:05;48.97;;;20.73;;
20036;SDS011;10179;42.640;23.312;2023-02-18T05:28:31;32.72;;;14.32;;
20036;SDS011;10179;42.640;23.312;2023-02-18T05:30:57;20.35;;;9.40;;
20036;SDS011;10179;42.640;23.312;2023-02-18T05:33:22;18.20;;;7.60;;
20036;SDS011;10179;42.640;23.312;2023-02-18T05:35:48;17.50;;;7.95;;
20036;SDS011;10179;42.640;23.312;2023-02-18T05:38:13;15.98;;;7.80;;
20036;SDS011;10179;42.640;23.312;2023-02-18T05:40:39;18.23;;;8.00;;
20036;SDS011;10179;42.640;23.312;2023-02-18T05:43:04;17.90;;;8.32;;
20036;SDS011;10179;42.640;23.312;2023-02-18T05:45:30;38.97;;;10.52;;
20036;SDS011;10179;42.640;23.312;2023-02-18T05:47:55;27.80;;;10.77;;
20036;SDS011;10179;42.640;23.312;2023-02-18T05:50:21;27.48;;;11.35;;
20036;SDS011;10179;42.640;23.312;2023-02-18T05:52:46;30.00;;;10.70;;
20036;SDS011;10179;42.640;23.312;2023-02-18T05:55:12;26.73;;;10.70;;
20036;SDS011;10179;42.640;23.312;2023-02-18T05:57:37;26.83;;;12.35;;
20036;SDS011;10179;42.640;23.312;2023-02-18T06:00:03;34.13;;;12.63;;
20036;SDS011;10179;42.640;23.312;2023-02-18T06:02:30;45.90;;;13.55;;
20036;SDS011;10179;42.640;23.312;2023-02-18T06:04:55;27.55;;;10.65;;
20036;SDS011;10179;42.640;23.312;2023-02-18T06:07:21;23.35;;;9.93;;
20036;SDS011;10179;42.640;23.312;2023-02-18T06:09:46;28.65;;;10.10;;
20036;SDS011;10179;42.640;23.312;2023-02-18T06:12:12;33.08;;;11.75;;
20036;SDS011;10179;42.640;23.312;2023-02-18T06:14:37;32.60;;;9.50;;
20036;SDS011;10179;42.640;23.312;2023-02-18T06:17:06;27.52;;;10.52;;
20036;SDS011;10179;42.640;23.312;2023-02-18T06:19:32;25.40;;;10.05;;
20036;SDS011;10179;42.640;23.312;2023-02-18T06:21:58;18.27;;;8.15;;
20036;SDS011;10179;42.640;23.312;2023-02-18T06:24:23;21.25;;;9.50;;
20036;SDS011;10179;42.640;23.312;2023-02-18T06:26:49;16.92;;;7.75;;
20036;SDS011;10179;42.640;23.312;2023-02-18T06:29:14;16.60;;;8.00;;
20036;SDS011;10179;42.640;23.312;2023-02-18T06:31:39;18.52;;;7.60;;
20036;SDS011;10179;42.640;23.312;2023-02-18T06:34:05;16.98;;;7.65;;
20036;SDS011;10179;42.640;23.312;2023-02-18T06:36:30;21.10;;;9.18;;
20036;SDS011;10179;42.640;23.312;2023-02-18T06:38:56;19.60;;;7.68;;
20036;SDS011;10179;42.640;23.312;2023-02-18T06:41:23;17.17;;;7.70;;
20036;SDS011;10179;42.640;23.312;2023-02-18T06:43:49;25.30;;;10.23;;
20036;SDS011;10179;42.640;23.312;2023-02-18T06:46:15;34.83;;;11.50;;
20036;SDS011;10179;42.640;23.312;2023-02-18T06:48:41;34.90;;;10.88;;
20036;SDS011;10179;42.640;23.312;2023-02-18T06:51:06;34.58;;;15.57;;
20036;SDS011;10179;42.640;23.312;2023-02-18T06:53:32;35.08;;;13.07;;
20036;SDS011;10179;42.640;23.312;2023-02-18T06:55:57;34.95;;;13.70;;
20036;SDS011;10179;42.640;23.312;2023-02-18T06:58:23;77.35;;;30.73;;
20036;SDS011;10179;42.640;23.312;2023-02-18T07:00:48;85.95;;;29.15;;
20036;SDS011;10179;42.640;23.312;2023-02-18T07:03:15;57.88;;;20.55;;
20036;SDS011;10179;42.640;23.312;2023-02-18T07:05:41;42.22;;;11.98;;
20036;SDS011;10179;42.640;23.312;2023-02-18T07:08:06;29.40;;;10.32;;
20036;SDS011;10179;42.640;23.312;2023-02-18T07:10:32;46.15;;;14.07;;
20036;SDS011;10179;42.640;23.312;2023-02-18T07:12:59;43.40;;;13.13;;
20036;SDS011;10179;42.640;23.312;2023-02-18T07:15:25;51.42;;;14.32;;
20036;SDS011;10179;42.640;23.312;2023-02-18T07:17:51;46.25;;;13.57;;
20036;SDS011;10179;42.640;23.312;2023-02-18T07:20:18;44.85;;;13.75;;
20036;SDS011;10179;42.640;23.312;2023-02-18T07:22:44;43.60;;;14.40;;
20036;SDS011;10179;42.640;23.312;2023-02-18T07:25:10;45.50;;;12.98;;
20036;SDS011;10179;42.640;23.312;2023-02-18T07:27:36;53.25;;;15.77;;
20036;SDS011;10179;42.640;23.312;2023-02-18T07:30:01;73.00;;;31.52;;
20036;SDS011;10179;42.640;23.312;2023-02-18T07:32:27;37.30;;;13.63;;
20036;SDS011;10179;42.640;23.312;2023-02-18T07:34:52;31.08;;;13.15;;
20036;SDS011;10179;42.640;23.312;2023-02-18T07:37:18;22.55;;;10.77;;
20036;SDS011;10179;42.640;23.312;2023-02-18T07:39:44;20.55;;;9.57;;
20036;SDS011;10179;42.640;23.312;2023-02-18T07:42:10;19.67;;;8.95;;
20036;SDS011;10179;42.640;23.312;2023-02-18T07:44:36;23.90;;;9.90;;
20036;SDS011;10179;42.640;23.312;2023-02-18T07:47:03;20.70;;;9.20;;
20036;SDS011;10179;42.640;23.312;2023-02-18T07:49:29;24.92;;;9.73;;
20036;SDS011;10179;42.640;23.312;2023-02-18T07:51:55;18.88;;;9.02;;
20036;SDS011;10179;42.640;23.312;2023-02-18T07:54:20;25.15;;;9.35;;
20036;SDS011;10179;42.640;23.312;2023-02-18T07:56:46;20.73;;;9.30;;
20036;SDS011;10179;42.640;23.312;2023-02-18T07:59:11;23.48;;;9.57;;
20036;SDS011;10179;42.640;23.312;2023-02-18T08:01:38;21.50;;;8.73;;
20036;SDS011;10179;42.640;23.312;2023-02-18T08:04:03;16.77;;;7.63;;
20036;SDS011;10179;42.640;23.312;2023-02-18T08:06:33;22.58;;;8.80;;
20036;SDS011;10179;42.640;23.312;2023-02-18T08:08:59;28.52;;;8.88;;
20036;SDS011;10179;42.640;23.312;2023-02-18T08:11:25;17.80;;;8.80;;
20036;SDS011;10179;42.640;23.312;2023-02-18T08:13:50;26.65;;;10.07;;
20036;SDS011;10179;42.640;23.312;2023-02-18T08:16:16;25.55;;;8.02;;
20036;SDS011;10179;42.640;23.312;2023-02-18T08:18:44;26.73;;;9.40;;
20036;SDS011;10179;42.640;23.312;2023-02-18T08:21:11;20.83;;;9.60;;
20036;SDS011;10179;42.640;23.312;2023-02-18T08:23:37;36.08;;;10.20;;
20036;SDS011;10179;42.640;23.312;2023-02-18T08:26:03;25.63;;;9.57;;
20036;SDS011;10179;42.640;23.312;2023-02-18T08:28:28;18.27;;;8.05;;
20036;SDS011;10179;42.640;23.312;2023-02-18T08:30:54;21.05;;;8.50;;
20036;SDS011;10179;42.640;23.312;2023-02-18T08:33:21;17.92;;;9.05;;
20036;SDS011;10179;42.640;23.312;2023-02-18T08:35:47;19.63;;;8.80;;
20036;SDS011;10179;42.640;23.312;2023-02-18T08:38:14;17.55;;;8.32;;
20036;SDS011;10179;42.640;23.312;2023-02-18T08:40:40;20.95;;;7.57;;
20036;SDS011;10179;42.640;23.312;2023-02-18T08:43:06;18.52;;;8.20;;
20036;SDS011;10179;42.640;23.312;2023-02-18T08:45:32;24.73;;;8.43;;
20036;SDS011;10179;42.640;23.312;2023-02-18T08:47:57;19.50;;;8.27;;
20036;SDS011;10179;42.640;23.312;2023-02-18T08:50:23;15.90;;;8.13;;
20036;SDS011;10179;42.640;23.312;2023-02-18T08:52:53;16.38;;;8.30;;
20036;SDS011;10179;42.640;23.312;2023-02-18T08:55:19;15.05;;;8.02;;
20036;SDS011;10179;42.640;23.312;2023-02-18T08:57:46;14.68;;;7.25;;
20036;SDS011;10179;42.640;23.312;2023-02-18T09:00:15;24.83;;;8.77;;
20036;SDS011;10179;42.640;23.312;2023-02-18T09:02:41;21.05;;;7.60;;
20036;SDS011;10179;42.640;23.312;2023-02-18T09:05:07;18.15;;;7.72;;
20036;SDS011;10179;42.640;23.312;2023-02-18T09:07:34;18.67;;;7.57;;
20036;SDS011;10179;42.640;23.312;2023-02-18T09:10:00;20.45;;;7.25;;
20036;SDS011;10179;42.640;23.312;2023-02-18T09:12:25;23.17;;;8.95;;
20036;SDS011;10179;42.640;23.312;2023-02-18T09:14:52;19.25;;;7.88;;
20036;SDS011;10179;42.640;23.312;2023-02-18T09:17:17;19.38;;;7.75;;
20036;SDS011;10179;42.640;23.312;2023-02-18T09:19:42;17.75;;;7.57;;
20036;SDS011;10179;42.640;23.312;2023-02-18T09:22:08;24.20;;;9.10;;
20036;SDS011;10179;42.640;23.312;2023-02-18T09:24:37;19.55;;;8.57;;
20036;SDS011;10179;42.640;23.312;2023-02-18T09:27:03;18.50;;;8.02;;
20036;SDS011;10179;42.640;23.312;2023-02-18T09:29:29;22.60;;;8.50;;
20036;SDS011;10179;42.640;23.312;2023-02-18T09:31:54;15.63;;;6.80;;
20036;SDS011;10179;42.640;23.312;2023-02-18T09:34:23;21.77;;;7.90;;
20036;SDS011;10179;42.640;23.312;2023-02-18T09:36:49;18.05;;;7.63;;
20036;SDS011;10179;42.640;23.312;2023-02-18T09:39:14;20.42;;;8.02;;
20036;SDS011;10179;42.640;23.312;2023-02-18T09:41:43;22.45;;;8.52;;
20036;SDS011;10179;42.640;23.312;2023-02-18T09:44:22;25.73;;;8.52;;
20036;SDS011;10179;42.640;23.312;2023-02-18T09:46:58;18.58;;;7.88;;
20036;SDS011;10179;42.640;23.312;2023-02-18T09:49:38;14.50;;;6.85;;
20036;SDS011;10179;42.640;23.312;2023-02-18T09:52:12;19.55;;;7.97;;
20036;SDS011;10179;42.640;23.312;2023-02-18T09:54:40;23.15;;;8.48;;
20036;SDS011;10179;42.640;23.312;2023-02-18T09:57:06;27.13;;;8.35;;
20036;SDS011;10179;42.640;23.312;2023-02-18T09:59:47;18.98;;;8.40;;
20036;SDS011;10179;42.640;23.312;2023-02-18T10:02:18;17.90;;;8.20;;
20036;SDS011;10179;42.640;23.312;2023-02-18T10:04:44;22.65;;;8.25;;
20036;SDS011;10179;42.640;23.312;2023-02-18T10:07:26;27.45;;;8.10;;
20036;SDS011;10179;42.640;23.312;2023-02-18T10:09:54;23.95;;;10.70;;
20036;SDS011;10179;42.640;23.312;2023-02-18T10:12:22;22.10;;;9.52;;
20036;SDS011;10179;42.640;23.312;2023-02-18T10:14:51;21.25;;;8.50;;
20036;SDS011;10179;42.640;23.312;2023-02-18T10:17:18;22.45;;;9.32;;
20036;SDS011;10179;42.640;23.312;2023-02-18T10:19:46;21.48;;;8.60;;
20036;SDS011;10179;42.640;23.312;2023-02-18T10:22:13;16.65;;;8.10;;
20036;SDS011;10179;42.640;23.312;2023-02-18T10:24:45;26.35;;;9.63;;
20036;SDS011;10179;42.640;23.312;2023-02-18T10:27:25;26.58;;;9.77;;
20036;SDS011;10179;42.640;23.312;2023-02-18T10:29:51;32.63;;;8.55;;
20036;SDS011;10179;42.640;23.312;2023-02-18T10:32:24;24.98;;;8.73;;
20036;SDS011;10179;42.640;23.312;2023-02-18T10:34:59;28.25;;;12.43;;
20036;SDS011;10179;42.640;23.312;2023-02-18T10:42:53;31.05;;;13.20;;
20036;SDS011;10179;42.640;23.312;2023-02-18T10:48:25;22.70;;;8.90;;
20036;SDS011;10179;42.640;23.312;2023-02-18T10:51:00;21.10;;;7.80;;
20036;SDS011;10179;42.640;23.312;2023-02-18T10:53:33;17.63;;;8.32;;
20036;SDS011;10179;42.640;23.312;2023-02-18T10:56:01;15.60;;;7.82;;
20036;SDS011;10179;42.640;23.312;2023-02-18T11:00:59;17.50;;;8.30;;
20036;SDS011;10179;42.640;23.312;2023-02-18T11:03:42;19.65;;;8.13;;
20036;SDS011;10179;42.640;23.312;2023-02-18T11:06:31;20.48;;;8.70;;
20036;SDS011;10179;42.640;23.312;2023-02-18T11:09:03;23.63;;;7.93;;
20036;SDS011;10179;42.640;23.312;2023-02-18T11:13:59;17.67;;;8.57;;
20036;SDS011;10179;42.640;23.312;2023-02-18T11:22:12;21.40;;;8.00;;
20036;SDS011;10179;42.640;23.312;2023-02-18T11:24:57;16.85;;;7.30;;
20036;SDS011;10179;42.640;23.312;2023-02-18T11:29:58;25.15;;;8.02;;
20036;SDS011;10179;42.640;23.312;2023-02-18T11:32:29;15.18;;;8.75;;
20036;SDS011;10179;42.640;23.312;2023-02-18T11:35:00;39.95;;;13.75;;
20036;SDS011;10179;42.640;23.312;2023-02-18T11:37:27;62.33;;;19.58;;
20036;SDS011;10179;42.640;23.312;2023-02-18T11:39:53;31.63;;;11.68;;
20036;SDS011;10179;42.640;23.312;2023-02-18T11:42:21;16.67;;;8.32;;
20036;SDS011;10179;42.640;23.312;2023-02-18T11:44:50;12.27;;;6.78;;
20036;SDS011;10179;42.640;23.312;2023-02-18T11:49:57;17.40;;;6.75;;
20036;SDS011;10179;42.640;23.312;2023-02-18T11:52:26;17.05;;;7.28;;
20036;SDS011;10179;42.640;23.312;2023-02-18T11:55:01;17.33;;;7.07;;
20036;SDS011;10179;42.640;23.312;2023-02-18T11:57:29;13.77;;;6.55;;
20036;SDS011;10179;42.640;23.312;2023-02-18T11:59:56;14.55;;;6.05;;
20036;SDS011;10179;42.640;23.312;2023-02-18T12:04:55;20.70;;;7.47;;
20036;SDS011;10179;42.640;23.312;2023-02-18T12:07:31;20.33;;;6.85;;
20036;SDS011;10179;42.640;23.312;2023-02-18T12:10:21;18.42;;;6.90;;
20036;SDS011;10179;42.640;23.312;2023-02-18T12:13:00;16.40;;;6.50;;
20036;SDS011;10179;42.640;23.312;2023-02-18T12:23:37;11.00;;;5.00;;
20036;SDS011;10179;42.640;23.312;2023-02-18T12:26:37;8.30;;;3.13;;
20036;SDS011;10179;42.640;23.312;2023-02-18T12:34:41;2.75;;;1.15;;
20036;SDS011;10179;42.640;23.312;2023-02-18T12:39:54;1.60;;;0.70;;
20036;SDS011;10179;42.640;23.312;2023-02-18T13:00:14;4.22;;;1.30;;
20036;SDS011;10179;42.640;23.312;2023-02-18T13:11:19;5.20;;;1.17;;
20036;SDS011;10179;42.640;23.312;2023-02-18T13:16:43;7.55;;;1.63;;
20036;SDS011;10179;42.640;23.312;2023-02-18T13:21:59;4.10;;;2.10;;
20036;SDS011;10179;42.640;23.312;2023-02-18T13:24:35;5.53;;;2.40;;
20036;SDS011;10179;42.640;23.312;2023-02-18T13:35:23;11.45;;;3.47;;
20036;SDS011;10179;42.640;23.312;2023-02-18T13:38:09;6.97;;;2.45;;
20036;SDS011;10179;42.640;23.312;2023-02-18T13:40:47;3.85;;;1.30;;
20036;SDS011;10179;42.640;23.312;2023-02-18T13:45:42;2.67;;;1.80;;
20036;SDS011;10179;42.640;23.312;2023-02-18T13:48:26;2.42;;;1.45;;
20036;SDS011;10179;42.640;23.312;2023-02-18T13:50:53;4.68;;;1.80;;
20036;SDS011;10179;42.640;23.312;2023-02-18T13:53:27;5.13;;;2.13;;
20036;SDS011;10179;42.640;23.312;2023-02-18T13:56:03;6.03;;;2.03;;
20036;SDS011;10179;42.640;23.312;2023-02-18T13:59:08;12.27;;;3.20;;
20036;SDS011;10179;42.640;23.312;2023-02-18T14:01:43;4.45;;;2.13;;
20036;SDS011;10179;42.640;23.312;2023-02-18T14:31:02;17.83;;;6.05;;
20036;SDS011;10179;42.640;23.312;2023-02-18T14:33:30;9.23;;;4.10;;
20036;SDS011;10179;42.640;23.312;2023-02-18T14:47:09;9.77;;;3.83;;
20036;SDS011;10179;42.640;23.312;2023-02-18T14:49:43;9.68;;;3.80;;
20036;SDS011;10179;42.640;23.312;2023-02-18T14:52:21;9.63;;;3.88;;
20036;SDS011;10179;42.640;23.312;2023-02-18T14:54:54;9.32;;;3.70;;
20036;SDS011;10179;42.640;23.312;2023-02-18T14:57:21;11.05;;;3.65;;
20036;SDS011;10179;42.640;23.312;2023-02-18T15:00:05;11.63;;;3.83;;
20036;SDS011;10179;42.640;23.312;2023-02-18T15:02:34;6.57;;;3.60;;
20036;SDS011;10179;42.640;23.312;2023-02-18T15:05:22;9.35;;;4.18;;
20036;SDS011;10179;42.640;23.312;2023-02-18T15:07:59;7.82;;;4.45;;
20036;SDS011;10179;42.640;23.312;2023-02-18T15:11:00;11.27;;;4.55;;
20036;SDS011;10179;42.640;23.312;2023-02-18T15:13:30;9.43;;;4.57;;
20036;SDS011;10179;42.640;23.312;2023-02-18T15:15:59;16.98;;;4.45;;
20036;SDS011;10179;42.640;23.312;2023-02-18T15:20:59;14.05;;;4.55;;
20036;SDS011;10179;42.640;23.312;2023-02-18T15:23:26;10.55;;;4.50;;
20036;SDS011;10179;42.640;23.312;2023-02-18T15:25:53;11.00;;;4.20;;
20036;SDS011;10179;42.640;23.312;2023-02-18T15:28:27;13.30;;;4.97;;
20036;SDS011;10179;42.640;23.312;2023-02-18T15:30:55;13.80;;;4.60;;
20036;SDS011;10179;42.640;23.312;2023-02-18T15:33:24;10.77;;;4.55;;
20036;SDS011;10179;42.640;23.312;2023-02-18T15:35:50;10.27;;;4.90;;
20036;SDS011;10179;42.640;23.312;2023-02-18T15:38:17;15.43;;;4.63;;
20036;SDS011;10179;42.640;23.312;2023-02-18T15:40:46;11.10;;;4.90;;
20036;SDS011;10179;42.640;23.312;2023-02-18T15:43:15;11.27;;;4.43;;
20036;SDS011;10179;42.640;23.312;2023-02-18T15:45:44;11.88;;;3.90;;
20036;SDS011;10179;42.640;23.312;2023-02-18T15:48:20;12.68;;;5.72;;
20036;SDS011;10179;42.640;23.312;2023-02-18T15:50:53;10.02;;;4.70;;
20036;SDS011;10179;42.640;23.312;2023-02-18T15:53:20;14.57;;;4.57;;
20036;SDS011;10179;42.640;23.312;2023-02-18T15:55:51;7.32;;;3.95;;
20036;SDS011;10179;42.640;23.312;2023-02-18T16:00:52;15.02;;;5.05;;
20036;SDS011;10179;42.640;23.312;2023-02-18T16:03:21;12.73;;;5.43;;
20036;SDS011;10179;42.640;23.312;2023-02-18T16:05:50;11.55;;;4.38;;
20036;SDS011;10179;42.640;23.312;2023-02-18T16:08:33;13.60;;;4.75;;
20036;SDS011;10179;42.640;23.312;2023-02-18T16:11:00;14.23;;;5.38;;
20036;SDS011;10179;42.640;23.312;2023-02-18T16:13:31;24.95;;;5.63;;
20036;SDS011;10179;42.640;23.312;2023-02-18T16:15:58;13.35;;;5.03;;
20036;SDS011;10179;42.640;23.312;2023-02-18T16:23:59;22.00;;;6.10;;
20036;SDS011;10179;42.640;23.312;2023-02-18T16:29:10;13.20;;;5.03;;
20036;SDS011;10179;42.640;23.312;2023-02-18T16:34:01;11.30;;;5.20;;
20036;SDS011;10179;42.640;23.312;2023-02-18T16:36:26;13.55;;;5.35;;
20036;SDS011;10179;42.640;23.312;2023-02-18T16:38:52;14.43;;;5.45;;
20036;SDS011;10179;42.640;23.312;2023-02-18T16:41:17;7.97;;;2.90;;
20036;SDS011;10179;42.640;23.312;2023-02-18T16:43:43;6.85;;;2.63;;
20036;SDS011;10179;42.640;23.312;2023-02-18T16:46:12;17.13;;;5.55;;
20036;SDS011;10179;42.640;23.312;2023-02-18T16:48:39;16.27;;;5.10;;
20036;SDS011;10179;42.640;23.312;2023-02-18T16:51:08;14.00;;;4.70;;
20036;SDS011;10179;42.640;23.312;2023-02-18T16:53:39;12.43;;;5.13;;
20036;SDS011;10179;42.640;23.312;2023-02-18T16:56:05;18.20;;;5.60;;
20036;SDS011;10179;42.640;23.312;2023-02-18T16:58:37;12.80;;;5.68;;
20036;SDS011;10179;42.640;23.312;2023-02-18T17:01:03;16.58;;;6.43;;
20036;SDS011;10179;42.640;23.312;2023-02-18T17:03:28;14.25;;;6.05;;
20036;SDS011;10179;42.640;23.312;2023-02-18T17:05:54;11.55;;;5.03;;
20036;SDS011;10179;42.640;23.312;2023-02-18T17:08:20;12.93;;;6.07;;
20036;SDS011;10179;42.640;23.312;2023-02-18T17:10:54;15.20;;;6.50;;
20036;SDS011;10179;42.640;23.312;2023-02-18T17:13:22;18.58;;;5.60;;
20036;SDS011;10179;42.640;23.312;2023-02-18T17:15:53;16.55;;;6.38;;
20036;SDS011;10179;42.640;23.312;2023-02-18T17:18:19;13.85;;;5.75;;
20036;SDS011;10179;42.640;23.312;2023-02-18T17:20:46;13.07;;;6.07;;
20036;SDS011;10179;42.640;23.312;2023-02-18T17:23:22;18.42;;;6.25;;
20036;SDS011;10179;42.640;23.312;2023-02-18T17:25:48;11.15;;;5.38;;